createdAt,value
2017-05-03T00:00:12.767Z,22.39
2017-05-03T00:01:12.481Z,22.51
2017-05-03T00:02:12.514Z,22.43
2017-05-03T00:03:12.845Z,22.37
2017-05-03T00:04:12.885Z,22.43
2017-05-03T00:05:12.901Z,22.4
2017-05-03T00:06:12.928Z,22.49
2017-05-03T00:07:12.952Z,22.43
2017-05-03T00:08:12.678Z,22.47
2017-05-03T00:09:13.021Z,22.47
2017-05-03T00:10:13.035Z,22.39
2017-05-03T00:11:13.063Z,22.4
2017-05-03T00:12:13.085Z,22.37
2017-05-03T00:13:13.117Z,22.46
2017-05-03T00:14:13.175Z,22.36
2017-05-03T00:15:13.172Z,22.47
2017-05-03T00:16:13.201Z,22.47
2017-05-03T00:17:13.226Z,22.42
2017-05-03T00:18:13.246Z,22.4
2017-05-03T00:19:12.970Z,22.37
2017-05-03T00:20:13.307Z,22.35
2017-05-03T00:21:13.020Z,22.37
2017-05-03T00:22:13.363Z,22.37
2017-05-03T00:23:13.082Z,22.42
2017-05-03T00:24:13.415Z,22.36
2017-05-03T00:25:13.443Z,22.39
2017-05-03T00:26:13.468Z,22.43
2017-05-03T00:27:12.873Z,22.37
2017-05-03T00:28:13.208Z,22.36
2017-05-03T00:29:13.550Z,22.42
2017-05-03T00:30:13.264Z,22.37
2017-05-03T00:31:13.604Z,22.43
2017-05-03T00:32:13.626Z,22.39
2017-05-03T00:33:13.356Z,22.37
2017-05-03T00:34:13.374Z,22.4
2017-05-03T00:35:13.398Z,22.4
2017-05-03T00:36:13.119Z,22.4
2017-05-03T00:37:13.764Z,22.36
2017-05-03T00:38:13.792Z,22.4
2017-05-03T00:39:13.818Z,22.3
2017-05-03T00:40:13.845Z,22.36
2017-05-03T00:41:13.559Z,22.31
2017-05-03T00:42:13.590Z,22.31
2017-05-03T00:43:13.925Z,22.37
2017-05-03T00:44:13.949Z,22.28
2017-05-03T00:45:13.980Z,22.42
2017-05-03T00:46:14.003Z,22.35
2017-05-03T00:47:13.724Z,22.39
2017-05-03T00:48:13.741Z,22.4
2017-05-03T00:49:14.111Z,22.28
2017-05-03T00:50:14.123Z,22.3
2017-05-03T00:51:14.147Z,22.28
2017-05-03T00:52:14.168Z,22.3
2017-05-03T00:53:14.193Z,22.3
2017-05-03T00:54:13.909Z,22.24
2017-05-03T00:55:14.250Z,22.28
2017-05-03T00:56:14.273Z,22.39
2017-05-03T00:57:14.303Z,22.27
2017-05-03T00:58:14.340Z,22.28
2017-05-03T00:59:14.354Z,22.28
2017-05-03T01:00:14.061Z,22.33
2017-05-03T01:01:14.411Z,22.31
2017-05-03T01:02:14.128Z,22.28
2017-05-03T01:03:14.463Z,22.24
2017-05-03T01:04:14.502Z,22.25
2017-05-03T01:05:14.521Z,22.28
2017-05-03T01:06:14.235Z,22.31
2017-05-03T01:07:14.268Z,22.27
2017-05-03T01:08:14.300Z,22.27
2017-05-03T01:09:14.622Z,22.3
2017-05-03T01:10:14.657Z,22.24
2017-05-03T01:11:14.681Z,22.28
2017-05-03T01:12:14.707Z,22.28
2017-05-03T01:13:14.739Z,22.27
2017-05-03T01:14:14.761Z,22.27
2017-05-03T01:15:14.476Z,22.31
2017-05-03T01:16:14.813Z,22.27
2017-05-03T01:17:14.530Z,22.31
2017-05-03T01:18:14.806Z,22.21
2017-05-03T01:19:14.899Z,22.2
2017-05-03T01:20:14.610Z,22.2
2017-05-03T01:21:14.944Z,22.22
2017-05-03T01:22:14.973Z,22.21
2017-05-03T01:23:15.258Z,22.22
2017-05-03T01:24:15.029Z,22.2
2017-05-03T01:25:14.743Z,22.2
2017-05-03T01:26:15.086Z,22.2
2017-05-03T01:27:15.114Z,22.22
2017-05-03T01:28:15.390Z,22.18
2017-05-03T01:29:14.853Z,22.25
2017-05-03T01:30:15.179Z,22.22
2017-05-03T01:31:15.217Z,22.17
2017-05-03T01:32:15.246Z,22.2
2017-05-03T01:33:15.205Z,22.12
2017-05-03T01:34:15.298Z,22.2
2017-05-03T01:35:15.327Z,22.21
2017-05-03T01:36:15.353Z,22.17
2017-05-03T01:37:15.069Z,22.15
2017-05-03T01:38:15.657Z,22.17
2017-05-03T01:39:15.430Z,22.18
2017-05-03T01:40:15.463Z,22.15
2017-05-03T01:41:15.476Z,22.18
2017-05-03T01:42:15.200Z,22.07
2017-05-03T01:43:15.789Z,22.15
2017-05-03T01:44:15.256Z,22.22
2017-05-03T01:45:15.589Z,22.1
2017-05-03T01:46:15.308Z,22.07
2017-05-03T01:47:15.647Z,22.06
2017-05-03T01:48:15.925Z,22.14
2017-05-03T01:49:15.702Z,22.17
2017-05-03T01:50:15.735Z,22.17
2017-05-03T01:51:15.751Z,22.12
2017-05-03T01:52:15.473Z,22.14
2017-05-03T01:53:16.062Z,22.1
2017-05-03T01:54:15.523Z,22.12
2017-05-03T01:55:15.859Z,22.14
2017-05-03T01:56:15.609Z,22.12
2017-05-03T01:57:15.916Z,22.03
2017-05-03T01:58:16.196Z,22.09
2017-05-03T01:59:15.964Z,22.09
2017-05-03T02:00:15.683Z,22.14
2017-05-03T02:01:15.708Z,22.06
2017-05-03T02:02:16.036Z,22.05
2017-05-03T02:03:16.375Z,22.14
2017-05-03T02:04:16.102Z,22.12
2017-05-03T02:05:15.822Z,21.99
2017-05-03T02:06:16.155Z,22.06
2017-05-03T02:07:15.872Z,22.07
2017-05-03T02:08:16.472Z,22.06
2017-05-03T02:09:16.238Z,22.06
2017-05-03T02:10:16.257Z,22.06
2017-05-03T02:11:15.982Z,22.05
2017-05-03T02:12:16.004Z,21.98
2017-05-03T02:13:16.595Z,22.05
2017-05-03T02:14:16.061Z,22.06
2017-05-03T02:15:16.082Z,22.02
2017-05-03T02:16:16.450Z,21.99
2017-05-03T02:17:16.138Z,22.02
2017-05-03T02:18:16.152Z,22.02
2017-05-03T02:19:16.202Z,22.05
2017-05-03T02:20:16.538Z,22.06
2017-05-03T02:21:16.549Z,22.07
2017-05-03T02:22:16.267Z,22.09
2017-05-03T02:23:16.616Z,22.07
2017-05-03T02:24:16.012Z,22.03
2017-05-03T02:25:16.349Z,22.02
2017-05-03T02:26:16.687Z,22.05
2017-05-03T02:27:16.716Z,22
2017-05-03T02:28:16.735Z,22.06
2017-05-03T02:29:16.769Z,22.03
2017-05-03T02:30:16.484Z,22.07
2017-05-03T02:31:16.506Z,22.03
2017-05-03T02:32:16.849Z,22.02
2017-05-03T02:33:16.871Z,22.02
2017-05-03T02:34:16.593Z,21.9
2017-05-03T02:35:16.622Z,21.99
2017-05-03T02:36:16.651Z,21.84
2017-05-03T02:37:16.983Z,21.9
2017-05-03T02:38:17.007Z,21.98
2017-05-03T02:39:17.045Z,21.92
2017-05-03T02:40:16.756Z,21.91
2017-05-03T02:41:16.801Z,21.88
2017-05-03T02:42:17.118Z,21.98
2017-05-03T02:43:16.834Z,21.91
2017-05-03T02:44:16.859Z,21.94
2017-05-03T02:45:16.878Z,21.92
2017-05-03T02:46:17.221Z,21.96
2017-05-03T02:47:16.939Z,22
2017-05-03T02:48:17.275Z,21.92
2017-05-03T02:49:17.296Z,21.92
2017-05-03T02:50:17.016Z,21.84
2017-05-03T02:51:17.362Z,21.96
2017-05-03T02:52:17.073Z,21.9
2017-05-03T02:53:17.403Z,21.88
2017-05-03T02:54:17.431Z,21.96
2017-05-03T02:55:17.464Z,21.9
2017-05-03T02:56:17.181Z,21.94
2017-05-03T02:57:17.513Z,21.82
2017-05-03T02:58:17.538Z,21.75
2017-05-03T02:59:17.566Z,21.88
2017-05-03T03:00:17.284Z,21.91
2017-05-03T03:01:17.637Z,21.84
2017-05-03T03:02:17.344Z,21.86
2017-05-03T03:03:17.686Z,21.8
2017-05-03T03:04:17.704Z,21.91
2017-05-03T03:05:17.715Z,21.9
2017-05-03T03:06:17.753Z,21.88
2017-05-03T03:07:17.470Z,21.86
2017-05-03T03:08:17.807Z,21.9
2017-05-03T03:09:17.522Z,21.86
2017-05-03T03:10:17.546Z,21.92
2017-05-03T03:11:17.570Z,21.83
2017-05-03T03:12:17.634Z,21.82
2017-05-03T03:13:17.629Z,21.79
2017-05-03T03:14:17.907Z,21.8
2017-05-03T03:15:17.994Z,21.82
2017-05-03T03:16:17.408Z,21.9
2017-05-03T03:17:17.732Z,21.91
2017-05-03T03:18:17.762Z,21.9
2017-05-03T03:19:18.034Z,21.9
2017-05-03T03:20:17.815Z,21.92
2017-05-03T03:21:17.836Z,21.92
2017-05-03T03:22:18.177Z,21.9
2017-05-03T03:23:18.209Z,21.82
2017-05-03T03:24:18.166Z,21.88
2017-05-03T03:25:17.946Z,21.86
2017-05-03T03:26:17.975Z,21.9
2017-05-03T03:27:18.312Z,21.9
2017-05-03T03:28:18.339Z,21.82
2017-05-03T03:29:18.297Z,21.84
2017-05-03T03:30:18.388Z,21.82
2017-05-03T03:31:18.406Z,21.86
2017-05-03T03:32:18.447Z,21.9
2017-05-03T03:33:18.156Z,21.79
2017-05-03T03:34:18.438Z,21.91
2017-05-03T03:35:18.521Z,21.88
2017-05-03T03:36:18.550Z,21.8
2017-05-03T03:37:18.579Z,21.83
2017-05-03T03:38:18.302Z,21.82
2017-05-03T03:39:18.574Z,21.84
2017-05-03T03:40:18.654Z,21.9
2017-05-03T03:41:18.057Z,21.8
2017-05-03T03:42:18.390Z,21.82
2017-05-03T03:43:18.744Z,21.88
2017-05-03T03:44:19.017Z,21.83
2017-05-03T03:45:18.793Z,21.82
2017-05-03T03:46:18.814Z,21.77
2017-05-03T03:47:18.844Z,21.8
2017-05-03T03:48:18.872Z,21.75
2017-05-03T03:49:18.524Z,21.82
2017-05-03T03:50:18.609Z,21.79
2017-05-03T03:51:18.948Z,21.83
2017-05-03T03:52:18.968Z,21.8
2017-05-03T03:53:19.016Z,21.82
2017-05-03T03:54:19.319Z,21.84
2017-05-03T03:55:19.057Z,21.8
2017-05-03T03:56:18.454Z,21.86
2017-05-03T03:57:18.827Z,21.79
2017-05-03T03:58:18.823Z,21.77
2017-05-03T03:59:19.420Z,21.82
2017-05-03T04:00:18.874Z,21.75
2017-05-03T04:01:18.913Z,21.83
2017-05-03T04:02:19.242Z,21.79
2017-05-03T04:03:18.643Z,21.79
2017-05-03T04:04:19.550Z,21.75
2017-05-03T04:05:19.009Z,21.71
2017-05-03T04:06:19.353Z,21.77
2017-05-03T04:07:19.377Z,21.74
2017-05-03T04:08:19.083Z,21.71
2017-05-03T04:09:19.429Z,21.75
2017-05-03T04:10:19.456Z,21.72
2017-05-03T04:11:19.175Z,21.71
2017-05-03T04:12:19.193Z,21.72
2017-05-03T04:13:19.531Z,21.74
2017-05-03T04:14:19.248Z,21.82
2017-05-03T04:15:19.588Z,21.71
2017-05-03T04:16:19.613Z,21.8
2017-05-03T04:17:19.640Z,21.75
2017-05-03T04:18:19.667Z,21.79
2017-05-03T04:19:19.372Z,21.72
2017-05-03T04:20:19.720Z,21.71
2017-05-03T04:21:19.429Z,21.74
2017-05-03T04:22:19.773Z,21.72
2017-05-03T04:23:19.803Z,21.71
2017-05-03T04:24:19.830Z,21.82
2017-05-03T04:25:19.539Z,21.75
2017-05-03T04:26:19.567Z,21.71
2017-05-03T04:27:19.904Z,21.75
2017-05-03T04:28:19.938Z,21.79
2017-05-03T04:29:19.962Z,21.71
2017-05-03T04:30:19.996Z,21.8
2017-05-03T04:31:20.020Z,21.8
2017-05-03T04:32:19.732Z,21.8
2017-05-03T04:33:19.754Z,21.71
2017-05-03T04:34:20.091Z,21.82
2017-05-03T04:35:20.127Z,21.75
2017-05-03T04:36:20.140Z,21.79
2017-05-03T04:37:19.853Z,21.83
2017-05-03T04:38:20.206Z,21.75
2017-05-03T04:39:20.221Z,21.72
2017-05-03T04:40:19.930Z,21.71
2017-05-03T04:41:20.271Z,21.75
2017-05-03T04:42:20.301Z,21.75
2017-05-03T04:43:20.020Z,21.75
2017-05-03T04:44:20.354Z,21.79
2017-05-03T04:45:20.066Z,21.74
2017-05-03T04:46:20.406Z,21.75
2017-05-03T04:47:20.436Z,21.74
2017-05-03T04:48:20.464Z,21.8
2017-05-03T04:49:20.486Z,21.8
2017-05-03T04:50:20.514Z,21.72
2017-05-03T04:51:20.538Z,21.8
2017-05-03T04:52:20.560Z,21.83
2017-05-03T04:53:20.594Z,21.75
2017-05-03T04:54:20.317Z,21.75
2017-05-03T04:55:20.898Z,21.82
2017-05-03T04:56:20.043Z,21.75
2017-05-03T04:57:20.699Z,21.8
2017-05-03T04:58:20.407Z,21.74
2017-05-03T04:59:20.757Z,21.72
2017-05-03T05:00:21.033Z,21.84
2017-05-03T05:01:20.803Z,21.82
2017-05-03T05:02:20.831Z,21.75
2017-05-03T05:03:20.859Z,21.75
2017-05-03T05:04:20.889Z,21.83
2017-05-03T05:05:21.161Z,21.8
2017-05-03T05:06:20.933Z,21.8
2017-05-03T05:07:20.952Z,21.8
2017-05-03T05:08:21.003Z,21.83
2017-05-03T05:09:21.015Z,21.74
2017-05-03T05:10:20.980Z,21.83
2017-05-03T05:11:21.065Z,21.8
2017-05-03T05:12:21.094Z,21.84
2017-05-03T05:13:20.809Z,21.83
2017-05-03T05:14:21.145Z,21.79
2017-05-03T05:15:20.806Z,21.75
2017-05-03T05:16:21.201Z,21.83
2017-05-03T05:17:21.218Z,21.9
2017-05-03T05:18:21.259Z,21.79
2017-05-03T05:19:21.281Z,21.83
2017-05-03T05:20:21.240Z,21.9
2017-05-03T05:21:21.333Z,21.82
2017-05-03T05:22:21.050Z,21.82
2017-05-03T05:23:21.391Z,21.82
2017-05-03T05:24:21.108Z,21.82
2017-05-03T05:25:21.381Z,21.9
2017-05-03T05:26:21.469Z,21.8
2017-05-03T05:27:21.494Z,21.88
2017-05-03T05:28:21.524Z,21.88
2017-05-03T05:29:21.296Z,21.84
2017-05-03T05:30:21.512Z,21.88
2017-05-03T05:31:21.600Z,21.9
2017-05-03T05:32:21.314Z,21.84
2017-05-03T05:33:21.336Z,21.75
2017-05-03T05:34:21.372Z,21.91
2017-05-03T05:35:21.956Z,21.86
2017-05-03T05:36:21.733Z,21.82
2017-05-03T05:37:21.766Z,21.88
2017-05-03T05:38:21.779Z,21.9
2017-05-03T05:39:21.810Z,21.82
2017-05-03T05:40:22.094Z,21.88
2017-05-03T05:41:21.829Z,21.82
2017-05-03T05:42:21.890Z,21.86
2017-05-03T05:43:21.913Z,21.91
2017-05-03T05:44:21.638Z,21.8
2017-05-03T05:45:22.238Z,21.77
2017-05-03T05:46:21.373Z,21.79
2017-05-03T05:47:21.712Z,21.91
2017-05-03T05:48:21.733Z,21.83
2017-05-03T05:49:22.082Z,21.88
2017-05-03T05:50:22.350Z,21.86
2017-05-03T05:51:22.124Z,21.82
2017-05-03T05:52:22.158Z,21.83
2017-05-03T05:53:21.874Z,21.83
2017-05-03T05:54:22.207Z,21.77
2017-05-03T05:55:22.486Z,21.79
2017-05-03T05:56:21.956Z,21.79
2017-05-03T05:57:21.977Z,21.75
2017-05-03T05:58:22.318Z,21.83
2017-05-03T05:59:22.338Z,21.77
2017-05-03T06:00:22.626Z,21.9
2017-05-03T06:01:22.084Z,21.88
2017-05-03T06:02:21.794Z,21.84
2017-05-03T06:03:22.457Z,21.84
2017-05-03T06:04:22.474Z,21.84
2017-05-03T06:05:22.498Z,21.92
2017-05-03T06:06:22.212Z,21.92
2017-05-03T06:07:22.243Z,21.88
2017-05-03T06:08:22.585Z,21.9
2017-05-03T06:09:22.301Z,21.83
2017-05-03T06:10:22.324Z,21.92
2017-05-03T06:11:22.660Z,21.96
2017-05-03T06:12:22.380Z,21.91
2017-05-03T06:13:22.713Z,21.92
2017-05-03T06:14:22.429Z,21.84
2017-05-03T06:15:22.759Z,21.88
2017-05-03T06:16:22.796Z,21.92
2017-05-03T06:17:22.824Z,21.96
2017-05-03T06:18:22.544Z,21.92
2017-05-03T06:19:22.879Z,21.9
2017-05-03T06:20:22.898Z,21.9
2017-05-03T06:21:22.941Z,21.92
2017-05-03T06:22:22.651Z,21.98
2017-05-03T06:23:22.990Z,21.86
2017-05-03T06:24:23.010Z,21.84
2017-05-03T06:25:22.723Z,21.86
2017-05-03T06:26:23.062Z,21.91
2017-05-03T06:27:23.087Z,21.94
2017-05-03T06:28:23.140Z,21.92
2017-05-03T06:29:22.825Z,21.99
2017-05-03T06:30:23.166Z,21.96
2017-05-03T06:31:23.195Z,21.84
2017-05-03T06:32:23.221Z,21.88
2017-05-03T06:33:23.249Z,21.92
2017-05-03T06:34:23.277Z,21.9
2017-05-03T06:35:22.977Z,22
2017-05-03T06:36:23.041Z,21.9
2017-05-03T06:37:23.351Z,22.02
2017-05-03T06:38:23.383Z,22
2017-05-03T06:39:23.408Z,21.92
2017-05-03T06:40:23.428Z,22
2017-05-03T06:41:23.458Z,21.96
2017-05-03T06:42:23.171Z,22.05
2017-05-03T06:43:23.196Z,21.99
2017-05-03T06:44:23.228Z,22.06
2017-05-03T06:45:23.566Z,22
2017-05-03T06:46:23.534Z,22.05
2017-05-03T06:47:23.335Z,22
2017-05-03T06:48:23.332Z,22.03
2017-05-03T06:49:23.704Z,21.96
2017-05-03T06:50:23.702Z,22.1
2017-05-03T06:51:23.666Z,22.09
2017-05-03T06:52:23.751Z,22.03
2017-05-03T06:53:23.777Z,22.06
2017-05-03T06:54:23.803Z,22
2017-05-03T06:55:23.834Z,22
2017-05-03T06:56:23.496Z,22.03
2017-05-03T06:57:23.571Z,22.02
2017-05-03T06:58:23.911Z,22.03
2017-05-03T06:59:23.946Z,22.03
2017-05-03T07:00:23.657Z,22.1
2017-05-03T07:01:24.245Z,22.05
2017-05-03T07:02:24.018Z,22.09
2017-05-03T07:03:24.047Z,22.05
2017-05-03T07:04:23.763Z,22.1
2017-05-03T07:05:23.789Z,22.12
2017-05-03T07:06:24.378Z,22.07
2017-05-03T07:07:24.153Z,22.09
2017-05-03T07:08:24.180Z,22.12
2017-05-03T07:09:23.891Z,22.1
2017-05-03T07:10:24.232Z,22.1
2017-05-03T07:11:24.513Z,22.06
2017-05-03T07:12:24.283Z,22.03
2017-05-03T07:13:24.001Z,22.06
2017-05-03T07:14:24.343Z,22
2017-05-03T07:15:24.396Z,22.03
2017-05-03T07:16:24.650Z,22.02
2017-05-03T07:17:24.423Z,22.12
2017-05-03T07:18:24.130Z,22.05
2017-05-03T07:19:24.519Z,22.1
2017-05-03T07:20:24.504Z,22.15
2017-05-03T07:21:24.154Z,22.12
2017-05-03T07:22:24.238Z,22.09
2017-05-03T07:23:24.575Z,22.07
2017-05-03T07:24:24.607Z,22.12
2017-05-03T07:25:24.321Z,22.14
2017-05-03T07:26:24.597Z,22.17
2017-05-03T07:27:24.378Z,22.12
2017-05-03T07:28:24.091Z,22.14
2017-05-03T07:29:24.747Z,22.14
2017-05-03T07:30:24.776Z,22.14
2017-05-03T07:31:24.737Z,22.09
2017-05-03T07:32:24.515Z,22.07
2017-05-03T07:33:24.546Z,22.1
2017-05-03T07:34:24.879Z,22.09
2017-05-03T07:35:24.903Z,22.06
2017-05-03T07:36:25.181Z,22.14
2017-05-03T07:37:24.958Z,22.15
2017-05-03T07:38:24.981Z,22.15
2017-05-03T07:39:24.693Z,22.12
2017-05-03T07:40:24.728Z,22.14
2017-05-03T07:41:25.320Z,22.15
2017-05-03T07:42:25.085Z,22.2
2017-05-03T07:43:25.122Z,22.15
2017-05-03T07:44:24.826Z,22.25
2017-05-03T07:45:25.175Z,22.18
2017-05-03T07:46:25.452Z,22.27
2017-05-03T07:47:24.913Z,22.2
2017-05-03T07:48:25.249Z,22.27
2017-05-03T07:49:24.962Z,22.25
2017-05-03T07:50:25.311Z,22.21
2017-05-03T07:51:25.578Z,22.25
2017-05-03T07:52:25.354Z,22.3
2017-05-03T07:53:25.385Z,22.25
2017-05-03T07:54:25.415Z,22.27
2017-05-03T07:55:25.122Z,22.28
2017-05-03T07:56:25.718Z,22.24
2017-05-03T07:57:25.492Z,22.27
2017-05-03T07:58:25.205Z,22.3
2017-05-03T07:59:25.555Z,22.3
2017-05-03T08:00:25.254Z,22.36
2017-05-03T08:01:25.600Z,22.39
2017-05-03T08:02:25.629Z,22.37
2017-05-03T08:03:25.345Z,22.37
2017-05-03T08:04:25.374Z,22.45
2017-05-03T08:05:25.396Z,22.4
2017-05-03T08:06:25.424Z,22.49
2017-05-03T08:07:25.456Z,22.55
2017-05-03T08:08:25.797Z,22.45
2017-05-03T08:09:25.826Z,22.45
2017-05-03T08:10:25.531Z,22.54
2017-05-03T08:11:25.872Z,22.54
2017-05-03T08:12:25.906Z,22.58
2017-05-03T08:13:25.925Z,22.65
2017-05-03T08:14:25.953Z,22.64
2017-05-03T08:15:25.974Z,22.6
2017-05-03T08:16:26.003Z,22.64
2017-05-03T08:17:25.719Z,22.62
2017-05-03T08:18:26.073Z,22.6
2017-05-03T08:19:26.089Z,22.65
2017-05-03T08:20:26.115Z,22.62
2017-05-03T08:21:25.828Z,22.62
2017-05-03T08:22:25.853Z,22.6
2017-05-03T08:23:25.883Z,22.65
2017-05-03T08:24:25.598Z,22.62
2017-05-03T08:25:26.251Z,22.62
2017-05-03T08:26:26.279Z,22.62
2017-05-03T08:27:26.307Z,22.64
2017-05-03T08:28:26.334Z,22.65
2017-05-03T08:29:26.360Z,22.62
2017-05-03T08:30:26.391Z,22.62
2017-05-03T08:31:26.420Z,22.62
2017-05-03T08:32:26.131Z,22.62
2017-05-03T08:33:26.468Z,22.68
2017-05-03T08:34:26.492Z,22.67
2017-05-03T08:35:26.525Z,22.62
2017-05-03T08:36:26.270Z,22.67
2017-05-03T08:37:26.584Z,22.61
2017-05-03T08:38:26.608Z,22.6
2017-05-03T08:39:26.325Z,22.62
2017-05-03T08:40:26.694Z,22.61
2017-05-03T08:41:26.687Z,22.75
2017-05-03T08:42:26.711Z,22.68
2017-05-03T08:43:26.427Z,22.72
2017-05-03T08:44:26.773Z,22.7
2017-05-03T08:45:26.795Z,22.67
2017-05-03T08:46:26.827Z,22.73
2017-05-03T08:47:27.158Z,22.58
2017-05-03T08:48:26.890Z,22.76
2017-05-03T08:49:26.593Z,22.68
2017-05-03T08:50:26.622Z,22.65
2017-05-03T08:51:26.646Z,22.7
2017-05-03T08:52:27.244Z,22.75
2017-05-03T08:53:27.018Z,22.76
2017-05-03T08:54:27.040Z,22.7
2017-05-03T08:55:27.064Z,22.75
2017-05-03T08:56:26.778Z,22.75
2017-05-03T08:57:27.370Z,22.7
2017-05-03T08:58:27.152Z,22.79
2017-05-03T08:59:27.179Z,22.72
2017-05-03T09:00:27.208Z,22.72
2017-05-03T09:01:27.225Z,22.77
2017-05-03T09:02:27.194Z,22.73
2017-05-03T09:03:26.975Z,22.75
2017-05-03T09:04:27.320Z,22.75
2017-05-03T09:05:27.349Z,22.77
2017-05-03T09:06:27.365Z,22.82
2017-05-03T09:07:27.646Z,22.79
2017-05-03T09:08:27.110Z,22.79
2017-05-03T09:09:27.451Z,22.79
2017-05-03T09:10:27.171Z,22.75
2017-05-03T09:11:27.506Z,22.8
2017-05-03T09:12:27.791Z,22.79
2017-05-03T09:13:26.942Z,22.82
2017-05-03T09:14:27.594Z,22.88
2017-05-03T09:15:27.652Z,22.8
2017-05-03T09:16:27.642Z,22.82
2017-05-03T09:17:27.955Z,22.86
2017-05-03T09:18:27.702Z,22.9
2017-05-03T09:19:27.731Z,22.83
2017-05-03T09:20:27.755Z,22.83
2017-05-03T09:21:27.781Z,22.82
2017-05-03T09:22:28.062Z,22.85
2017-05-03T09:23:27.528Z,22.86
2017-05-03T09:24:27.555Z,22.9
2017-05-03T09:25:27.892Z,22.92
2017-05-03T09:26:27.610Z,22.97
2017-05-03T09:27:28.198Z,22.98
2017-05-03T09:28:27.668Z,23.04
2017-05-03T09:29:28.004Z,23.07
2017-05-03T09:30:27.717Z,23.04
2017-05-03T09:31:28.057Z,23
2017-05-03T09:32:28.342Z,23.15
2017-05-03T09:33:28.118Z,23.12
2017-05-03T09:34:27.835Z,23.05
2017-05-03T09:35:28.170Z,23.13
2017-05-03T09:36:27.889Z,23.17
2017-05-03T09:37:28.477Z,23.2
2017-05-03T09:38:28.255Z,23.15
2017-05-03T09:39:28.275Z,23.17
2017-05-03T09:40:28.302Z,23.2
2017-05-03T09:41:28.333Z,23.15
2017-05-03T09:42:28.305Z,23.17
2017-05-03T09:43:28.078Z,23.17
2017-05-03T09:44:28.419Z,23.2
2017-05-03T09:45:28.446Z,23.16
2017-05-03T09:46:28.464Z,23.16
2017-05-03T09:47:28.786Z,23.16
2017-05-03T09:48:28.530Z,23.16
2017-05-03T09:49:28.558Z,23.16
2017-05-03T09:50:28.595Z,23.17
2017-05-03T09:51:28.293Z,23.17
2017-05-03T09:52:28.330Z,23.17
2017-05-03T09:53:28.666Z,23.16
2017-05-03T09:54:28.733Z,23.27
2017-05-03T09:55:28.407Z,23.23
2017-05-03T09:56:28.757Z,23.12
2017-05-03T09:57:28.465Z,23.23
2017-05-03T09:58:28.498Z,23.16
2017-05-03T09:59:28.523Z,23.16
2017-05-03T10:00:28.861Z,23.2
2017-05-03T10:01:28.885Z,23.12
2017-05-03T10:02:28.610Z,23.13
2017-05-03T10:03:28.949Z,23.12
2017-05-03T10:04:28.975Z,23.12
2017-05-03T10:05:28.999Z,23.13
2017-05-03T10:06:28.713Z,23.1
2017-05-03T10:07:29.056Z,23.17
2017-05-03T10:08:29.088Z,23.25
2017-05-03T10:09:29.118Z,23.15
2017-05-03T10:10:28.825Z,23.2
2017-05-03T10:11:29.169Z,23.16
2017-05-03T10:12:29.197Z,23.17
2017-05-03T10:13:28.917Z,23.12
2017-05-03T10:14:28.943Z,23.13
2017-05-03T10:15:29.280Z,23.1
2017-05-03T10:16:29.299Z,23.13
2017-05-03T10:17:29.336Z,23.13
2017-05-03T10:18:29.054Z,23.13
2017-05-03T10:19:29.391Z,23.1
2017-05-03T10:20:29.423Z,23.05
2017-05-03T10:21:29.440Z,23.22
2017-05-03T10:22:29.473Z,23.16
2017-05-03T10:23:29.497Z,23.15
2017-05-03T10:24:29.209Z,23.12
2017-05-03T10:25:29.242Z,23.2
2017-05-03T10:26:28.956Z,23.17
2017-05-03T10:27:29.299Z,23.15
2017-05-03T10:28:29.640Z,23.19
2017-05-03T10:29:29.675Z,23.19
2017-05-03T10:30:29.695Z,23.23
2017-05-03T10:31:29.716Z,23.27
2017-05-03T10:32:29.752Z,23.23
2017-05-03T10:33:29.460Z,23.25
2017-05-03T10:34:29.804Z,23.38
2017-05-03T10:35:29.826Z,23.31
2017-05-03T10:36:29.547Z,23.38
2017-05-03T10:37:29.892Z,23.32
2017-05-03T10:38:29.922Z,23.35
2017-05-03T10:39:29.946Z,23.28
2017-05-03T10:40:29.966Z,23.32
2017-05-03T10:41:29.687Z,23.35
2017-05-03T10:42:30.034Z,23.31
2017-05-03T10:43:29.688Z,23.36
2017-05-03T10:44:30.090Z,23.31
2017-05-03T10:45:30.115Z,23.28
2017-05-03T10:46:30.139Z,23.35
2017-05-03T10:47:30.168Z,23.31
2017-05-03T10:48:30.453Z,23.28
2017-05-03T10:49:29.605Z,23.31
2017-05-03T10:50:30.249Z,23.35
2017-05-03T10:51:29.963Z,23.39
2017-05-03T10:52:30.000Z,23.38
2017-05-03T10:53:30.584Z,23.42
2017-05-03T10:54:30.058Z,23.42
2017-05-03T10:55:30.398Z,23.48
2017-05-03T10:56:30.423Z,23.48
2017-05-03T10:57:30.160Z,23.53
2017-05-03T10:58:30.729Z,23.53
2017-05-03T10:59:30.502Z,23.54
2017-05-03T11:00:30.530Z,23.48
2017-05-03T11:01:30.249Z,23.54
2017-05-03T11:02:30.587Z,23.55
2017-05-03T11:03:30.871Z,23.53
2017-05-03T11:04:30.644Z,23.55
2017-05-03T11:05:30.673Z,23.54
2017-05-03T11:06:30.702Z,23.53
2017-05-03T11:07:30.743Z,23.54
2017-05-03T11:08:30.999Z,23.54
2017-05-03T11:09:30.788Z,23.48
2017-05-03T11:10:30.501Z,23.43
2017-05-03T11:11:30.851Z,23.46
2017-05-03T11:12:30.551Z,23.4
2017-05-03T11:13:31.152Z,23.43
2017-05-03T11:14:30.923Z,23.38
2017-05-03T11:15:30.950Z,23.33
2017-05-03T11:16:30.999Z,23.27
2017-05-03T11:17:31.014Z,23.33
2017-05-03T11:18:31.285Z,23.2
2017-05-03T11:19:31.067Z,23.25
2017-05-03T11:20:31.092Z,23.15
2017-05-03T11:21:30.805Z,23.22
2017-05-03T11:22:30.862Z,23.17
2017-05-03T11:23:31.426Z,23.13
2017-05-03T11:24:31.209Z,23.2
2017-05-03T11:25:31.237Z,23.1
2017-05-03T11:26:30.956Z,23.12
2017-05-03T11:27:30.665Z,23.09
2017-05-03T11:28:31.252Z,23.07
2017-05-03T11:29:31.348Z,23.05
2017-05-03T11:30:31.062Z,23.07
2017-05-03T11:31:31.411Z,23.07
2017-05-03T11:32:31.425Z,23.05
2017-05-03T11:33:31.406Z,23.02
2017-05-03T11:34:31.491Z,23.07
2017-05-03T11:35:31.512Z,23.05
2017-05-03T11:36:31.546Z,23.01
2017-05-03T11:37:31.255Z,23.02
2017-05-03T11:38:31.850Z,22.94
2017-05-03T11:39:31.637Z,22.92
2017-05-03T11:40:31.337Z,22.97
2017-05-03T11:41:31.691Z,22.98
2017-05-03T11:42:31.394Z,22.94
2017-05-03T11:43:31.422Z,22.9
2017-05-03T11:44:31.767Z,22.85
2017-05-03T11:45:31.784Z,22.97
2017-05-03T11:46:31.509Z,22.83
2017-05-03T11:47:31.845Z,22.9
2017-05-03T11:48:31.567Z,22.9
2017-05-03T11:49:31.916Z,22.85
2017-05-03T11:50:31.928Z,22.91
2017-05-03T11:51:31.654Z,22.88
2017-05-03T11:52:31.982Z,22.86
2017-05-03T11:53:31.699Z,22.88
2017-05-03T11:54:32.042Z,22.85
2017-05-03T11:55:32.075Z,22.9
2017-05-03T11:56:32.096Z,22.85
2017-05-03T11:57:32.125Z,22.82
2017-05-03T11:58:32.159Z,22.82
2017-05-03T11:59:32.175Z,22.86
2017-05-03T12:00:32.203Z,22.85
2017-05-03T12:01:31.925Z,22.85
2017-05-03T12:02:31.940Z,22.85
2017-05-03T12:03:32.295Z,22.88
2017-05-03T12:04:32.320Z,22.88
2017-05-03T12:05:32.349Z,22.88
2017-05-03T12:06:32.372Z,22.85
2017-05-03T12:07:32.401Z,22.86
2017-05-03T12:08:32.437Z,22.88
2017-05-03T12:09:32.147Z,22.85
2017-05-03T12:10:32.474Z,22.86
2017-05-03T12:11:32.516Z,22.91
2017-05-03T12:12:32.221Z,22.85
2017-05-03T12:13:32.567Z,22.97
2017-05-03T12:14:32.593Z,23.02
2017-05-03T12:15:32.618Z,23.19
2017-05-03T12:16:32.649Z,23.23
2017-05-03T12:17:32.365Z,23.48
2017-05-03T12:18:32.701Z,23.61
2017-05-03T12:19:32.735Z,23.85
2017-05-03T12:20:32.763Z,24.05
2017-05-03T12:21:32.472Z,24.34
2017-05-03T12:22:32.817Z,24.45
2017-05-03T12:23:32.533Z,24.58
2017-05-03T12:24:32.878Z,24.77
2017-05-03T12:25:32.587Z,24.87
2017-05-03T12:26:32.937Z,25
2017-05-03T12:27:32.960Z,25.09
2017-05-03T12:28:32.984Z,25.14
2017-05-03T12:29:32.706Z,25.18
2017-05-03T12:30:33.051Z,25.1
2017-05-03T12:31:33.084Z,25.15
2017-05-03T12:32:33.103Z,25.17
2017-05-03T12:33:33.141Z,25.08
2017-05-03T12:34:33.158Z,25.09
2017-05-03T12:35:33.199Z,25.15
2017-05-03T12:36:33.238Z,25.17
2017-05-03T12:37:33.253Z,25.13
2017-05-03T12:38:33.281Z,25.32
2017-05-03T12:39:33.317Z,25.38
2017-05-03T12:40:33.031Z,25.36
2017-05-03T12:41:33.058Z,25.47
2017-05-03T12:42:32.771Z,25.52
2017-05-03T12:43:33.430Z,25.5
2017-05-03T12:44:33.463Z,25.46
2017-05-03T12:45:33.178Z,25.58
2017-05-03T12:46:33.517Z,25.62
2017-05-03T12:47:33.552Z,25.57
2017-05-03T12:48:33.581Z,25.51
2017-05-03T12:49:33.293Z,25.54
2017-05-03T12:50:33.643Z,25.45
2017-05-03T12:51:33.352Z,25.43
2017-05-03T12:52:33.384Z,25.5
2017-05-03T12:53:33.731Z,25.4
2017-05-03T12:54:33.770Z,25.51
2017-05-03T12:55:33.786Z,25.35
2017-05-03T12:56:33.819Z,25.35
2017-05-03T12:57:33.852Z,25.36